createdAt,value
2023-12-29T00:01:44.066Z,3.4
2023-12-29T00:06:54.124Z,3.4
2023-12-29T00:11:44.313Z,3.2
2023-12-29T00:16:43.950Z,3.2
2023-12-29T00:21:44.012Z,3.3
2023-12-29T00:26:45.226Z,3.4
2023-12-29T00:31:44.502Z,3.3
2023-12-29T00:36:44.530Z,3.5
2023-12-29T00:41:46.985Z,3.3
2023-12-29T00:46:43.979Z,3.3
2023-12-29T00:51:44.004Z,3.5
2023-12-29T00:56:44.009Z,3.2
2023-12-29T01:01:44.064Z,3.2
2023-12-29T01:06:44.516Z,3.2
2023-12-29T01:11:45.213Z,3.2
2023-12-29T01:16:43.975Z,3.2
2023-12-29T01:21:44.041Z,3.2
2023-12-29T01:26:44.006Z,3.1
2023-12-29T01:31:44.002Z,3.2
2023-12-29T01:36:44.001Z,3.2
2023-12-29T01:41:44.201Z,3.2
2023-12-29T01:46:44.026Z,2.9
2023-12-29T01:51:43.991Z,2.9
2023-12-29T01:56:43.966Z,3.2
2023-12-29T02:01:44.089Z,3.4
2023-12-29T02:06:44.265Z,3.4
2023-12-29T02:11:43.962Z,3.5
2023-12-29T02:16:44.041Z,3.8
2023-12-29T02:21:44.962Z,4
2023-12-29T02:26:44.988Z,4.3
2023-12-29T02:31:44.065Z,4.3
2023-12-29T02:36:44.242Z,4.3
2023-12-29T02:41:44.043Z,4.3
2023-12-29T02:46:44.054Z,4.3
2023-12-29T02:51:44.033Z,4.3
2023-12-29T02:56:44.018Z,4.2
2023-12-29T03:01:44.120Z,4.2
2023-12-29T03:06:44.014Z,4.7
2023-12-29T03:11:44.057Z,4.7
2023-12-29T03:16:44.015Z,4.7
2023-12-29T03:21:44.057Z,4.7
2023-12-29T03:26:44.026Z,4.7
2023-12-29T03:31:44.026Z,4.7
2023-12-29T03:36:44.189Z,4.7
2023-12-29T03:41:44.022Z,4.8
2023-12-29T03:46:44.056Z,4.9
2023-12-29T03:51:44.038Z,5
2023-12-29T03:56:44.524Z,5
2023-12-29T04:01:44.049Z,5
2023-12-29T04:06:44.038Z,5
2023-12-29T04:11:44.270Z,5.2
2023-12-29T04:16:44.031Z,5.3
2023-12-29T04:21:44.058Z,5.4
2023-12-29T04:26:44.053Z,5.4
2023-12-29T04:31:44.035Z,5.4
2023-12-29T04:36:44.044Z,5.5
2023-12-29T04:41:44.095Z,5.7
2023-12-29T04:46:44.035Z,5.8
2023-12-29T04:51:44.006Z,6.1
2023-12-29T04:56:44.072Z,6.3
2023-12-29T05:01:44.176Z,6.4
2023-12-29T05:06:44.046Z,6.5
2023-12-29T05:11:44.031Z,6.5
2023-12-29T05:16:44.017Z,6.6
2023-12-29T05:21:44.049Z,6.5
2023-12-29T05:26:44.036Z,6.6
2023-12-29T05:31:46.576Z,6.6
2023-12-29T05:36:44.042Z,6.6
2023-12-29T05:41:44.040Z,6.8
2023-12-29T05:46:43.996Z,7
2023-12-29T05:51:44.052Z,7
2023-12-29T05:56:44.000Z,7.1
2023-12-29T06:01:44.190Z,7.5
2023-12-29T06:06:44.032Z,7.7
2023-12-29T06:11:44.343Z,8.1
2023-12-29T06:16:44.036Z,8.1
2023-12-29T06:21:44.032Z,8.1
2023-12-29T06:26:44.044Z,8.1
2023-12-29T06:31:45.041Z,8.1
2023-12-29T06:36:44.105Z,7.9
2023-12-29T06:41:44.061Z,7.4
2023-12-29T06:46:44.025Z,7.3
2023-12-29T06:51:44.051Z,6.9
2023-12-29T06:56:44.059Z,6.8
2023-12-29T07:01:44.103Z,6.1
2023-12-29T07:06:44.171Z,5.7
2023-12-29T07:11:44.026Z,5.2
2023-12-29T07:16:44.543Z,5.1
2023-12-29T07:21:44.083Z,4.8
2023-12-29T07:26:45.058Z,4.8
2023-12-29T07:31:44.078Z,4.8
2023-12-29T07:36:44.062Z,4.8
2023-12-29T07:41:44.041Z,4.8
2023-12-29T07:46:44.063Z,4.8
2023-12-29T07:51:45.267Z,4.8
2023-12-29T07:56:44.079Z,5.2
2023-12-29T08:01:44.206Z,4.8
2023-12-29T08:06:44.213Z,4.8
2023-12-29T08:11:45.026Z,4.4
2023-12-29T08:16:44.012Z,4.4
2023-12-29T08:21:44.367Z,4.4
2023-12-29T08:26:44.048Z,4.4
2023-12-29T08:31:44.060Z,4.4
2023-12-29T08:36:44.095Z,4.8
2023-12-29T08:41:44.013Z,5.1
2023-12-29T08:46:44.303Z,5.2
2023-12-29T08:51:44.092Z,5.2
2023-12-29T08:56:44.044Z,5.2
2023-12-29T09:01:44.102Z,5.2
2023-12-29T09:06:44.098Z,5.2
2023-12-29T09:11:44.024Z,5.2
2023-12-29T09:16:47.019Z,5.2
2023-12-29T09:21:44.072Z,5.5
2023-12-29T09:26:44.287Z,5.7
2023-12-29T09:31:44.107Z,5.7
2023-12-29T09:36:44.106Z,5.7
2023-12-29T09:41:44.302Z,5.7
2023-12-29T09:46:44.062Z,6.5
2023-12-29T09:51:44.116Z,6.8
2023-12-29T09:56:44.076Z,7
2023-12-29T10:01:44.369Z,7
2023-12-29T10:06:44.698Z,7.9
2023-12-29T10:11:44.067Z,7.9
2023-12-29T10:16:44.048Z,7.9
2023-12-29T10:21:44.100Z,7
2023-12-29T10:26:44.083Z,6.5
2023-12-29T10:31:44.166Z,6.5
2023-12-29T10:36:44.312Z,6.5
2023-12-29T10:41:44.055Z,6
2023-12-29T10:46:44.075Z,6.3
2023-12-29T10:51:44.142Z,6.3
2023-12-29T10:56:44.056Z,6.5
2023-12-29T11:01:44.039Z,6.3
2023-12-29T11:06:44.299Z,6.1
2023-12-29T11:11:44.085Z,6.1
2023-12-29T11:16:44.069Z,6.3
2023-12-29T11:21:44.078Z,6.5
2023-12-29T11:26:44.038Z,6.6
2023-12-29T11:31:44.501Z,7
2023-12-29T11:36:44.105Z,7
2023-12-29T11:41:44.221Z,7
2023-12-29T11:46:44.074Z,6.6
2023-12-29T11:51:44.075Z,6.5
2023-12-29T11:56:44.107Z,6.4
2023-12-29T12:01:44.177Z,5.6
2023-12-29T12:06:44.099Z,4.8
2023-12-29T12:11:44.126Z,4.4
2023-12-29T12:16:44.105Z,4.4
2023-12-29T12:21:44.115Z,3.3
2023-12-29T12:26:44.106Z,3.3
2023-12-29T12:31:44.080Z,3.3
2023-12-29T12:36:44.081Z,3.3
2023-12-29T12:41:44.106Z,2.9
2023-12-29T12:46:44.057Z,2.9
2023-12-29T12:51:44.428Z,3.5
2023-12-29T12:56:44.067Z,4.7
2023-12-29T13:01:44.120Z,4.7
2023-12-29T13:06:44.117Z,4.7
2023-12-29T13:11:44.188Z,2.7
2023-12-29T13:16:44.659Z,1.5
2023-12-29T13:21:44.103Z,1.3
2023-12-29T13:26:44.102Z,1.2
2023-12-29T13:31:44.107Z,1.1
2023-12-29T13:36:44.144Z,1
2023-12-29T13:41:44.179Z,1
2023-12-29T13:46:44.191Z,1
2023-12-29T13:51:45.151Z,1
2023-12-29T13:56:45.461Z,1
2023-12-29T14:01:44.161Z,0.9
2023-12-29T14:06:44.157Z,0.9
2023-12-29T14:11:44.084Z,0.9
2023-12-29T14:16:44.126Z,4.3
2023-12-29T14:21:44.143Z,2.75
2023-12-29T14:26:44.115Z,2.9
2023-12-29T14:31:44.066Z,2.05
2023-12-29T14:36:44.230Z,1.2
2023-12-29T14:41:44.123Z,1.2
2023-12-29T14:46:44.139Z,1.2
2023-12-29T14:51:44.720Z,1.2
2023-12-29T14:56:44.080Z,1.1
2023-12-29T15:01:44.173Z,1.1
2023-12-29T15:06:44.105Z,1.1
2023-12-29T15:11:44.089Z,1.1
2023-12-29T15:16:44.180Z,1.1
2023-12-29T15:21:44.175Z,1.1
2023-12-29T15:26:44.146Z,1.2
2023-12-29T15:31:44.192Z,2.8
2023-12-29T15:36:44.166Z,6.7
2023-12-29T15:41:44.096Z,6.7
2023-12-29T15:46:44.107Z,6.7
2023-12-29T15:51:44.133Z,6.7
2023-12-29T15:56:44.145Z,6.7
2023-12-29T16:01:44.156Z,6.4
2023-12-29T16:06:44.176Z,6.2
2023-12-29T16:11:44.383Z,5.8
2023-12-29T16:16:44.134Z,5.2
2023-12-29T16:21:44.122Z,4.8
2023-12-29T16:26:51.286Z,3.4
2023-12-29T16:31:44.218Z,2.5
2023-12-29T16:36:44.123Z,2.1
2023-12-29T16:41:44.145Z,2.1
2023-12-29T16:46:44.183Z,2.5
2023-12-29T16:51:47.170Z,2.5
2023-12-29T16:56:44.173Z,3
2023-12-29T17:01:44.231Z,3.2
2023-12-29T17:06:44.551Z,3.4
2023-12-29T17:11:44.208Z,3.4
2023-12-29T17:16:44.128Z,3.2
2023-12-29T17:21:44.107Z,3
2023-12-29T17:26:44.151Z,2.4
2023-12-29T17:31:44.261Z,1.9
2023-12-29T17:36:44.160Z,1.9
2023-12-29T17:41:44.120Z,1.6
2023-12-29T17:46:44.153Z,1.6
2023-12-29T17:51:44.144Z,1.5
2023-12-29T17:56:44.194Z,1.5
2023-12-29T18:01:44.340Z,1.6
2023-12-29T18:06:52.848Z,1.6
2023-12-29T18:11:44.177Z,1.4
2023-12-29T18:16:44.182Z,1.4
2023-12-29T18:21:44.186Z,1.4
2023-12-29T18:26:44.154Z,3
2023-12-29T18:31:44.341Z,3
2023-12-29T18:36:44.235Z,1.9
2023-12-29T18:41:44.186Z,1.9
2023-12-29T18:46:44.189Z,1.9
2023-12-29T18:51:44.210Z,1.8
2023-12-29T18:56:44.173Z,1.8
2023-12-29T19:01:44.293Z,1.7
2023-12-29T19:06:44.167Z,1.7
2023-12-29T19:11:44.175Z,1.6
2023-12-29T19:16:44.117Z,1.5
2023-12-29T19:21:45.389Z,1.5
2023-12-29T19:26:44.176Z,1.5
2023-12-29T19:31:44.163Z,1.5
2023-12-29T19:36:44.220Z,1.5
2023-12-29T19:41:44.176Z,1.5
2023-12-29T19:46:44.166Z,1.5
2023-12-29T19:51:44.228Z,1.5
2023-12-29T19:56:44.141Z,1.4
2023-12-29T20:01:50.235Z,1.4
2023-12-29T20:06:44.172Z,1.4
2023-12-29T20:11:44.182Z,1.5
2023-12-29T20:16:44.247Z,1.5
2023-12-29T20:21:44.225Z,1.5
2023-12-29T20:26:44.204Z,1.6
2023-12-29T20:31:44.288Z,1.7
2023-12-29T20:36:44.259Z,1.8
2023-12-29T20:41:44.193Z,2.4
2023-12-29T20:46:44.225Z,3
2023-12-29T20:51:44.214Z,3.4
2023-12-29T20:56:44.195Z,3.4
2023-12-29T21:01:44.229Z,4.6
2023-12-29T21:06:44.249Z,4.8
2023-12-29T21:11:44.232Z,4.8
2023-12-29T21:16:44.219Z,4.8
2023-12-29T21:21:44.219Z,4.8
2023-12-29T21:26:44.203Z,4.1
2023-12-29T21:31:44.236Z,3.5
2023-12-29T21:36:44.246Z,3.4
2023-12-29T21:41:44.224Z,3.1
2023-12-29T21:46:44.226Z,2.8
2023-12-29T21:51:44.413Z,2.8
2023-12-29T21:56:44.223Z,2.8
2023-12-29T22:01:44.269Z,2.2
2023-12-29T22:06:44.236Z,2.1
2023-12-29T22:11:44.185Z,2.1
2023-12-29T22:16:44.424Z,2
2023-12-29T22:21:44.298Z,1.8
2023-12-29T22:26:44.210Z,1.8
2023-12-29T22:31:44.216Z,1.8
2023-12-29T22:36:44.185Z,1.8
2023-12-29T22:41:45.239Z,2.1
2023-12-29T22:46:46.827Z,2.1
2023-12-29T22:51:44.203Z,2.1
2023-12-29T22:56:44.163Z,2.2
2023-12-29T23:01:44.238Z,2.2
2023-12-29T23:06:44.240Z,2.2
2023-12-29T23:11:44.629Z,2.3
2023-12-29T23:16:44.220Z,2.3
2023-12-29T23:21:47.262Z,2.3
2023-12-29T23:26:44.235Z,2.4
2023-12-29T23:31:44.206Z,2.4
2023-12-29T23:36:44.275Z,2.4
2023-12-29T23:41:44.190Z,2.4
2023-12-29T23:46:44.204Z,2.4
2023-12-29T23:51:44.246Z,2.5
2023-12-29T23:56:44.226Z,2.5
